DAUE

Details ICAO DAUE (ELG)
Name EL GOLEA
Region Algeria
Timezone Africa/Algiers (UTC+1.0)
Plans Departing 26
Arriving 28
Stats Elevation 1,306 ft / 398 m (AMSL)
Location 30.577300° 2.864240°
Runways 2
Magnetic Variation 0.920° E
Sunrise 2019-12-14 06:38:41 UTC / 2019-12-14 07:38:41 Local
Sunset 2019-12-14 16:50:04 UTC / 2019-12-14 17:50:04 Local
Advertisement - Login to hide

Runways

ID Width Length Bearing (true/mag) Surface Threshold Overrun Markings Lighting
10 148 ft / 45 m 5,887 ft / 1,794 m 101.92° / 101.00° ASPHALT 0 ft / 0 m 0 ft / 0 m APP
18 148 ft / 45 m 9,833 ft / 2,997 m 179.49° / 178.57° ASPHALT 0 ft / 0 m 350 ft / 107 m APP
28 148 ft / 45 m 5,887 ft / 1,794 m 281.93° / 281.01° ASPHALT 0 ft / 0 m 0 ft / 0 m APP
36 148 ft / 45 m 9,833 ft / 2,997 m 359.49° / 358.57° ASPHALT 0 ft / 0 m 0 ft / 0 m APP

Map

Weather


0- 5 10 15 20 25 30 35+ Temperature / °C

Clouds and Precipitation
Forecast for 2019-12-14 06:00 UTC. Updated an hour ago

Ground ~20,000 ft ~40,000 ft Winds

METAR

DAUE 140400Z 33004KT CAVOK 08/04 Q1019

TAF

Not found

Frequencies

Tower 119.70 MHz
Warning: Do not use this data for real-world aviation or navigation. No guarantee of current accuracy is given.